Latest Weather Observations for Urandangi

IDQ60801

Issued at 3:02 am EST Saturday 7 March 2015 (issued every 30 minutes, with the page automatically refreshed every 10 minutes)

About weather observations | Map of weather stations | Latest weather observations for QLD | Other Formats
Station Details ID: 037058 Name: URANDANGI AERODROME Lat: -21.60 Lon: 138.37 Height: 178.6 m
Data from the previous 72 hours. | See also: Recent months at Urandangi
Date/Time
EST
Temp
°C
App
Temp
°C
Dew
Point
Rel
Hum
%
Delta-T
°C
Wind Press
QNH
hPa
Press
MSL
hPa
Rain
since 9 am
mm
Dir
 
Spd
km/h
Gust
km/h
Spd
kts
Gust
kts
07/03:00am 22.8 16.6 -9.2 11 12.2 S 17 24 9 13 1009.5 1008.3 0.0
07/02:30am 23.3 17.0 -10.0 10 12.6 S 17 24 9 13 1009.9 1008.7 0.0
07/02:00am 23.9 17.7 -9.5 10 12.9 S 17 22 9 12 1010.1 1008.9 0.0
07/01:30am 24.4 18.2 -9.1 10 13.1 SSE 17 22 9 12 1010.0 1008.8 0.0
07/01:00am 25.1 18.4 -10.0 9 13.6 SSE 19 24 10 13 1010.0 1008.8 0.0
07/12:30am 25.6 19.3 -9.6 9 13.7 S 17 22 9 12 1010.2 1009.0 0.0
07/12:00am 25.8 20.4 -8.1 10 13.7 S 13 19 7 10 1010.0 1008.8 0.0
 
Date/Time
EST
Temp
°C
App
Temp
°C
Dew
Point
Rel
Hum
%
Delta-T
°C
Wind Press
QNH
hPa
Press
MSL
hPa
Rain
since 9 am
mm
Dir
 
Spd
km/h
Gust
km/h
Spd
kts
Gust
kts
06/11:30pm 26.2 20.5 -7.8 10 13.8 SSE 15 20 8 11 1009.9 1008.7 0.0
06/11:00pm 26.5 20.8 -7.6 10 14.0 SSE 15 20 8 11 1009.7 1008.5 0.0
06/10:30pm 27.5 21.4 -8.2 9 14.6 SSE 17 20 9 11 1009.7 1008.5 0.0
06/10:00pm 28.4 22.3 -7.5 9 15.0 SSE 17 22 9 12 1009.5 1008.3 0.0
06/09:30pm 29.0 23.0 -7.0 9 15.2 S 17 24 9 13 1009.3 1008.1 0.0
06/09:00pm 29.6 23.7 -5.2 10 15.3 S 17 22 9 12 1009.1 1007.9 0.0
06/08:30pm 30.0 24.2 -4.9 10 15.5 S 17 22 9 12 1008.7 1007.5 0.0
06/08:00pm 30.8 24.7 -4.3 10 15.8 SSE 19 24 10 13 1008.5 1007.3 0.0
06/07:30pm 31.6 25.8 -5.1 9 16.4 S 17 24 9 13 1008.2 1007.0 0.0
06/07:00pm 32.8 25.3 -4.2 9 17.0 SSE 26 33 14 18 1007.9 1006.7 0.0
06/06:30pm 33.7 26.7 -3.5 9 17.3 SSE 24 33 13 18 1007.8 1006.6 0.0
06/06:00pm 34.4 27.1 -3.0 9 17.7 SSE 26 35 14 19 1007.6 1006.4 0.0
06/05:30pm 34.9 27.2 -2.6 9 17.9 SSE 28 37 15 20 1007.4 1006.2 0.0
06/05:00pm 35.4 28.2 -2.3 9 18.2 SSE 26 37 14 20 1007.3 1006.1 0.0
06/04:30pm 35.8 28.2 -2.0 9 18.3 SSE 28 43 15 23 1007.3 1006.1 0.0
06/04:00pm 36.5 28.8 0.0 10 18.4 SSE 30 41 16 22 1007.4 1006.2 0.0
06/03:30pm 36.4 29.5 -0.1 10 18.3 SSE 26 41 14 22 1007.5 1006.3 0.0
06/03:00pm 35.9 28.9 -0.5 10 18.1 SSE 26 37 14 20 1007.7 1006.5 0.0
06/02:38pm 35.5 28.3 0.6 11 17.6 SSE 28 48 15 26 1007.8 1006.6 0.0
06/02:30pm 36.1 28.6 1.0 11 17.9 S 30 39 16 21 1007.9 1006.7 0.0
06/02:00pm 35.0 27.2 1.4 12 17.1 SSE 32 43 17 23 1008.5 1007.3 0.0
06/01:30pm 34.3 26.4 0.8 12 16.8 SSE 32 43 17 23 1009.0 1007.8 0.0
06/01:00pm 34.3 26.9 2.0 13 16.6 SSE 30 46 16 25 1009.7 1008.5 0.0
06/12:30pm 33.5 25.8 2.4 14 15.9 SSE 32 43 17 23 1010.3 1009.1 0.0
06/12:00pm 34.0 27.3 3.7 15 15.9 SSE 28 43 15 23 1010.9 1009.8 0.0
06/11:30am 32.6 25.3 4.4 17 14.9 SSE 32 48 17 26 1011.3 1010.2 0.0
06/11:00am 32.0 24.6 3.9 17 14.6 SE 32 44 17 24 1011.7 1010.6 0.0
06/10:30am 31.3 23.9 4.2 18 14.1 SE 32 44 17 24 1012.2 1011.0 0.0
06/10:00am 30.6 23.7 4.4 19 13.7 SE 30 41 16 22 1012.3 1011.1 0.0
06/09:30am 29.8 23.0 5.1 21 13.0 SE 30 43 16 23 1012.4 1011.2 0.0
06/09:00am 28.6 21.4 4.8 22 12.3 SSE 32 44 17 24 1012.4 1011.2 0.0
06/08:30am 27.6 20.3 4.6 23 11.8 SSE 32 48 17 26 1012.2 1011.0 0.0
06/08:24am 27.4 20.9 4.5 23 11.7 SSE 28 48 15 26 1012.1 1010.9 0.0
06/08:00am 26.8 21.0 4.6 24 11.3 SSE 24 35 13 19 1011.8 1010.7 0.0
06/07:30am 26.3 20.6 4.7 25 11.0 SSE 24 33 13 18 1011.5 1010.4 0.0
06/07:00am 25.9 20.1 4.4 25 10.9 SSE 24 33 13 18 1011.2 1010.1 0.0
06/06:30am 26.4 19.8 4.2 24 11.2 SSE 28 39 15 21 1011.1 1010.0 0.0
06/06:00am 26.8 20.8 3.3 22 11.7 SSE 24 35 13 19 1010.8 1009.7 0.0
06/05:30am 27.4 21.0 3.2 21 12.1 SSE 26 37 14 20 1010.5 1009.4 0.0
06/05:00am 27.7 22.0 2.7 20 12.4 SSE 22 30 12 16 1010.5 1009.4 0.0
06/04:30am 28.1 22.9 3.7 21 12.4 SSE 20 33 11 18 1010.1 1008.9 0.0
06/04:00am 28.5 23.7 4.7 22 12.3 SSE 19 28 10 15 1009.9 1008.7 0.0
06/03:30am 28.9 24.0 5.1 22 12.4 SSE 20 30 11 16 1009.9 1008.7 0.0
06/03:00am 29.5 24.7 5.6 22 12.6 SSE 20 32 11 17 1010.0 1008.8 0.0
06/02:30am 30.4 25.5 4.9 20 13.4 SSE 20 32 11 17 1010.2 1009.0 0.0
06/02:00am 30.9 26.0 5.3 20 13.6 SSE 20 32 11 17 1010.4 1009.3 0.0
06/01:30am 31.0 26.5 6.1 21 13.4 SSE 19 26 10 14 1010.6 1009.5 0.0
06/01:00am 31.7 26.2 6.0 20 13.8 SSE 24 33 13 18 1010.4 1009.3 0.0
06/12:30am 32.0 26.6 6.2 20 14.0 SSE 24 37 13 20 1010.4 1009.3 0.0
06/12:00am 32.9 26.7 6.2 19 14.5 SSE 28 39 15 21 1010.4 1009.3 0.0
 
Date/Time
EST
Temp
°C
App
Temp
°C
Dew
Point
Rel
Hum
%
Delta-T
°C
Wind Press
QNH
hPa
Press
MSL
hPa
Rain
since 9 am
mm
Dir
 
Spd
km/h
Gust
km/h
Spd
kts
Gust
kts
05/11:30pm 33.5 26.7 6.7 19 14.7 SSE 32 50 17 27 1010.1 1008.9 0.0
05/11:21pm 33.6 27.5 6.8 19 14.8 SSE 28 50 15 27 1010.0 1008.8 0.0
05/11:00pm 34.2 26.9 7.3 19 15.0 SSE 35 50 19 27 1009.8 1008.6 0.0
05/10:30pm 34.6 28.0 7.6 19 15.1 SSE 32 44 17 24 1009.5 1008.3 0.0
05/10:00pm 35.3 28.0 7.4 18 15.7 SSE 35 52 19 28 1009.1 1007.9 0.0
05/09:30pm 35.9 29.3 7.9 18 15.9 S 32 44 17 24 1008.7 1007.5 0.0
05/09:00pm 36.2 30.4 8.1 18 16.0 S 28 37 15 20 1008.1 1006.9 0.0
05/08:30pm 36.9 30.5 8.7 18 16.2 S 32 48 17 26 1007.7 1006.5 0.0
05/08:00pm 37.3 31.0 9.0 18 16.4 S 32 44 17 24 1007.1 1005.9 0.0
05/07:30pm 38.0 31.2 7.8 16 17.2 S 33 44 18 24 1006.7 1005.5 0.0
05/07:00pm 39.0 32.8 7.7 15 18.0 S 30 44 16 24 1006.0 1004.9 0.0
05/06:30pm 40.0 32.7 7.4 14 18.7 SSE 35 46 19 25 1005.5 1004.4 0.0
05/06:00pm 40.7 34.5 8.0 14 19.0 SSE 30 43 16 23 1005.5 1004.4 0.0
05/05:30pm 41.3 34.9 8.5 14 19.2 S 32 43 17 23 1005.5 1004.4 0.0
05/05:17pm 41.5 35.6 7.5 13 19.6 S 28 48 15 26 1005.5 1004.4 0.0
05/05:00pm 41.8 35.6 7.8 13 19.8 S 30 41 16 22 1005.6 1004.5 0.0
05/04:30pm 42.0 36.6 7.9 13 19.8 SSE 26 44 14 24 1005.8 1004.7 0.0
05/04:00pm 42.5 36.4 8.3 13 20.1 SSE 30 43 16 23 1006.2 1005.0 0.0
05/03:30pm 41.9 36.7 8.9 14 19.5 SSE 26 37 14 20 1006.6 1005.4 0.0
05/03:00pm 42.3 37.3 8.1 13 20.0 SSE 24 37 13 20 1007.0 1005.8 0.0
05/02:30pm 40.4 35.7 7.8 14 18.8 SSE 22 39 12 21 1007.5 1006.3 0.0
05/02:00pm 41.4 36.6 7.4 13 19.6 SSE 22 32 12 17 1008.1 1006.9 0.0
05/01:30pm 40.6 35.2 7.9 14 18.9 SSE 26 41 14 22 1008.9 1007.7 0.0
05/01:00pm 39.9 35.4 8.4 15 18.3 SSE 22 37 12 20 1009.3 1008.1 0.0
05/12:30pm 39.6 35.6 9.1 16 17.9 SE 20 32 11 17 1010.0 1008.8 0.0
05/12:00pm 38.8 35.1 9.4 17 17.3 SSE 19 32 10 17 1010.6 1009.5 0.0
05/11:30am 38.3 34.1 9.8 18 16.8 SE 22 30 12 16 1011.1 1010.0 0.0
05/11:00am 37.6 32.5 9.2 18 16.5 SE 26 37 14 20 1011.3 1010.2 0.0
05/10:30am 36.7 32.2 10.1 20 15.6 SSE 24 33 13 18 1011.6 1010.5 0.0
05/10:00am 36.2 32.0 11.1 22 14.9 SSE 24 35 13 19 1011.5 1010.4 0.0
05/09:30am 35.2 32.5 13.4 27 13.4 SSE 20 32 11 17 1011.5 1010.4 0.0
05/09:00am 34.2 31.5 14.7 31 12.1 SSE 22 32 12 17 1011.3 1010.2 0.0
05/08:30am 33.6 31.1 15.1 33 11.6 SSE 22 32 12 17 1011.2 1010.1 0.0
05/08:00am 32.6 33.2 17.6 40 9.7 SSE 11 17 6 9 1011.0 1009.9 0.0
05/07:30am 31.1 33.0 18.5 47 8.2 SSE 6 7 3 4 1010.9 1009.8 0.0
05/07:00am 29.8 31.4 18.3 50 7.4 SE 7 9 4 5 1010.8 1009.7 0.0
05/06:30am 30.0 31.7 18.4 49 7.5 SE 7 9 4 5 1010.3 1009.1 0.0
05/06:00am 30.2 31.4 18.3 49 7.7 SE 9 11 5 6 1009.9 1008.7 0.0
05/05:30am 30.4 31.5 18.8 50 7.6 SSE 11 13 6 7 1009.9 1008.7 0.0
05/05:00am 28.8 30.2 18.6 54 6.6 S 9 11 5 6 1009.7 1008.5 0.0
05/04:30am 28.6 30.4 18.4 54 6.6 SSW 6 7 3 4 1009.1 1007.9 0.0
05/04:00am 28.4 29.6 18.2 54 6.6 SW 9 13 5 7 1008.9 1007.7 0.0
05/03:30am 28.9 30.4 18.1 52 6.9 S 7 9 4 5 1008.8 1007.6 0.0
05/03:00am 30.1 32.4 18.5 49 7.5 SE 4 6 2 3 1008.7 1007.5 0.0
05/02:30am 30.6 32.3 18.0 47 8.1 ESE 6 7 3 4 1009.1 1007.9 0.0
05/02:00am 31.5 32.8 18.5 46 8.5 ESE 9 11 5 6 1009.3 1008.1 0.0
05/01:30am 32.8 33.4 18.6 43 9.3 SE 13 19 7 10 1009.6 1008.4 0.0
05/01:00am 32.4 33.4 18.6 44 9.0 NE 11 13 6 7 1010.0 1008.8 0.0
05/12:30am 32.6 34.1 18.8 44 9.1 SE 9 13 5 7 1009.6 1008.4 0.0
05/12:00am 33.5 33.8 18.8 41 9.7 SSE 15 19 8 10 1009.9 1008.7 0.0
 
Date/Time
EST
Temp
°C
App
Temp
°C
Dew
Point
Rel
Hum
%
Delta-T
°C
Wind Press
QNH
hPa
Press
MSL
hPa
Rain
since 9 am
mm
Dir
 
Spd
km/h
Gust
km/h
Spd
kts
Gust
kts
04/11:30pm 33.9 34.0 18.4 40 10.2 SSE 15 20 8 11 1010.1 1008.9 0.0
04/11:00pm 34.2 33.4 16.1 34 11.5 SSE 15 19 8 10 1009.9 1008.7 0.0
04/10:30pm 33.8 32.8 13.3 29 12.5 E 11 11 6 6 1009.6 1008.4 0.0
04/10:00pm 33.8 32.8 13.3 29 12.5 ESE 11 13 6 7 1009.5 1008.3 0.0
04/09:30pm 34.2 33.5 13.1 28 12.8 ESE 9 9 5 5 1009.5 1008.3 0.0
04/09:00pm 35.0 34.3 13.2 27 13.3 ESE 9 13 5 7 1009.0 1007.8 0.0
04/08:30pm 35.4 34.4 13.5 26 13.5 ESE 11 13 6 7 1008.5 1007.3 0.0
04/08:00pm 35.9 35.4 12.8 25 14.1 ESE 7 9 4 5 1008.0 1006.8 0.0
04/07:30pm 37.9 36.8 13.2 23 15.2 E 11 13 6 7 1007.8 1006.6 0.0
04/07:00pm 39.2 37.5 13.6 22 16.0 E 15 20 8 11 1007.5 1006.3 0.0
04/06:30pm 40.0 38.3 13.5 21 16.5 E 15 20 8 11 1007.3 1006.1 0.0
04/06:00pm 40.2 38.9 13.7 21 16.6 E 13 20 7 11 1007.0 1005.8 0.0
04/05:30pm 40.3 40.7 15.2 23 16.0 SSE 7 15 4 8 1007.0 1005.8 0.0
04/05:00pm 39.3 39.1 15.6 24 15.2 SE 11 17 6 9 1007.4 1006.2 0.0
04/04:30pm 39.6 38.6 14.6 23 15.8 ESE 13 24 7 13 1007.4 1006.2 0.0
04/04:00pm 40.4 39.6 15.2 22 16.1 ESE 13 20 7 11 1007.6 1006.4 0.0
04/03:30pm 39.8 39.9 15.4 23 15.6 E 9 19 5 10 1008.0 1006.8 0.0
04/03:00pm 39.9 39.8 16.1 24 15.4 SE 11 19 6 10 1008.2 1007.0 0.0
04/02:30pm 39.7 40.0 16.0 25 15.3 S 9 19 5 10 1008.6 1007.4 0.0
04/02:00pm 39.1 39.2 15.5 25 15.1 ESE 9 15 5 8 1009.2 1008.0 0.0
04/01:30pm 39.1 40.0 16.7 27 14.6 SSE 7 15 4 8 1009.6 1008.4 0.0
04/01:00pm 39.2 40.2 16.8 27 14.6 E 7 13 4 7 1010.1 1008.9 0.0
04/12:30pm 37.7 39.0 17.1 29 13.4 SSE 6 9 3 5 1010.7 1009.6 0.0
04/12:00pm 37.5 39.6 18.0 31 12.8 W 4 7 2 4 1011.2 1010.1 0.0
04/11:30am 36.0 37.9 18.6 36 11.5 ESE 6 13 3 7 1011.5 1010.4 0.0
04/11:00am 36.0 37.9 19.0 36 11.3 E 7 17 4 9 1011.9 1010.8 0.0
04/10:30am 35.9 38.8 19.8 39 10.8 W 4 7 2 4 1012.1 1010.9 0.0
04/10:00am 35.2 37.4 19.1 38 10.7 SSE 6 11 3 6 1012.2 1011.0 0.0
04/09:30am 34.5 37.1 20.1 43 9.7 SSW 6 11 3 6 1012.2 1011.0 0.0
04/09:00am 33.2 35.6 20.0 45 8.8 SSW 7 11 4 6 1012.1 1010.9 0.0
04/08:30am 32.5 35.9 20.1 48 8.3 SSW 2 7 1 4 1011.9 1010.8 0.0
04/08:00am 31.6 35.4 20.2 50 7.6 CALM 0 0 0 0 1011.7 1010.6 0.0
04/07:30am 29.6 33.7 20.7 58 5.9 CALM 0 0 0 0 1011.3 1010.2 0.0
04/07:00am 27.5 31.1 19.8 63 5.1 CALM 0 0 0 0 1011.0 1009.9 0.0
04/06:30am 27.3 31.0 19.9 64 4.9 CALM 0 0 0 0 1010.5 1009.4 0.0
04/06:00am 27.0 29.4 18.8 60 5.3 NW 4 6 2 3 1010.0 1008.8 0.0
04/05:30am 27.9 31.3 19.4 60 5.5 CALM 0 4 0 2 1009.3 1008.1 0.0
04/05:00am 28.3 32.2 20.3 62 5.3 CALM 0 2 0 1 1009.0 1007.8 0.0
04/04:30am 28.7 31.9 20.4 60 5.5 NW 4 4 2 2 1008.7 1007.5 0.0
04/04:00am 28.8 31.6 20.5 61 5.5 NW 6 6 3 3 1008.6 1007.4 0.0
04/03:30am 29.0 31.7 20.2 59 5.8 NW 6 6 3 3 1008.5 1007.3 0.0

Other Formats:

Comma delimited format used in spreadsheet applications
http://www.bom.gov.au/fwo/IDQ60801/IDQ60801.94344.axf

JavaScript Object Notation format (JSON) in row-major order
http://www.bom.gov.au/fwo/IDQ60801/IDQ60801.94344.json